createdAt,value
2022-09-14T00:00:33.759Z,100185.78
2022-09-14T00:03:00.524Z,100193.16
2022-09-14T00:05:27.024Z,100233.44
2022-09-14T00:07:53.733Z,100233.09
2022-09-14T00:10:22.980Z,100207.94
2022-09-14T00:12:49.441Z,100218.03
2022-09-14T00:15:15.926Z,100225.47
2022-09-14T00:17:42.503Z,100207.31
2022-09-14T00:20:09.814Z,100187.00
2022-09-14T00:22:36.701Z,100187.81
2022-09-14T00:25:04.137Z,100190.41
2022-09-14T00:27:30.624Z,100193.25
2022-09-14T00:29:57.217Z,100193.69
2022-09-14T00:32:23.958Z,100201.22
2022-09-14T00:34:50.415Z,100209.22
2022-09-14T00:37:16.885Z,100148.13
2022-09-14T00:39:43.935Z,100177.25
2022-09-14T00:42:16.202Z,100168.22
2022-09-14T00:44:42.946Z,100214.22
2022-09-14T00:47:11.779Z,100203.13
2022-09-14T00:49:40.929Z,100176.59
2022-09-14T00:52:20.373Z,100167.81
2022-09-14T00:54:53.282Z,100202.22
2022-09-14T00:57:21.335Z,100134.91
2022-09-14T00:59:51.178Z,100152.75
2022-09-14T01:02:19.643Z,100175.28
2022-09-14T01:04:47.771Z,100128.78
2022-09-14T01:07:33.838Z,100175.94
2022-09-14T01:10:41.857Z,100184.63
2022-09-14T01:13:26.231Z,100178.66
2022-09-14T01:16:55.135Z,100158.69
2022-09-14T01:19:58.017Z,100141.59
2022-09-14T01:22:37.079Z,100148.81
2022-09-14T01:25:18.650Z,100157.31
2022-09-14T01:27:45.589Z,100152.78
2022-09-14T01:30:22.737Z,100170.09
2022-09-14T01:32:56.520Z,100176.41
2022-09-14T01:35:34.230Z,100169.66
2022-09-14T01:38:13.971Z,100172.47
2022-09-14T01:40:45.044Z,100133.81
2022-09-14T01:43:36.237Z,100176.81
2022-09-14T01:46:10.532Z,100134.78
2022-09-14T01:48:46.358Z,100126.63
2022-09-14T01:51:20.249Z,100169.97
2022-09-14T01:54:06.605Z,100149.53
2022-09-14T01:56:39.912Z,100169.75
2022-09-14T01:59:18.681Z,100165.72
2022-09-14T02:01:50.623Z,100157.03
2022-09-14T02:04:28.113Z,100145.00
2022-09-14T02:06:56.590Z,100138.16
2022-09-14T02:09:26.803Z,100148.38
2022-09-14T02:11:55.743Z,100148.16
2022-09-14T02:14:23.248Z,100146.16
2022-09-14T02:16:49.771Z,100176.53
2022-09-14T02:19:19.385Z,100161.97
2022-09-14T02:21:49.755Z,100181.22
2022-09-14T02:24:17.243Z,100151.91
2022-09-14T02:26:43.840Z,100137.50
2022-09-14T02:29:10.642Z,100164.50
2022-09-14T02:31:43.116Z,100184.72
2022-09-14T02:34:27.941Z,100177.19
2022-09-14T02:37:13.143Z,100169.25
2022-09-14T02:40:34.027Z,100165.84
2022-09-14T02:43:11.925Z,100165.56
2022-09-14T02:45:54.209Z,100163.81
2022-09-14T02:48:32.270Z,100166.13
2022-09-14T02:51:08.995Z,100157.00
2022-09-14T02:53:59.562Z,100163.28
2022-09-14T02:56:28.358Z,100166.16
2022-09-14T02:58:54.811Z,100153.50
2022-09-14T03:01:23.237Z,100134.53
2022-09-14T03:03:50.013Z,100149.34
2022-09-14T03:06:16.772Z,100161.28
2022-09-14T03:08:43.582Z,100153.78
2022-09-14T03:11:10.233Z,100162.88
2022-09-14T03:13:36.771Z,100155.94
2022-09-14T03:16:12.638Z,100153.50
2022-09-14T03:18:39.885Z,100145.06
2022-09-14T03:21:08.723Z,100139.81
2022-09-14T03:23:39.422Z,100148.19
2022-09-14T03:26:15.656Z,100155.72
2022-09-14T03:28:42.757Z,100157.44
2022-09-14T03:31:11.040Z,100167.94
2022-09-14T03:33:37.615Z,100143.09
2022-09-14T03:36:30.879Z,100126.59
2022-09-14T03:39:34.200Z,100135.06
2022-09-14T03:42:16.752Z,100112.81
2022-09-14T03:47:31.213Z,100094.44
2022-09-14T03:50:00.804Z,100119.38
2022-09-14T03:52:27.446Z,100111.63
2022-09-14T03:54:53.988Z,100124.84
2022-09-14T03:57:20.704Z,100118.91
2022-09-14T03:59:47.088Z,100135.72
2022-09-14T04:02:13.880Z,100090.97
2022-09-14T04:04:40.363Z,100141.97
2022-09-14T04:07:07.486Z,100113.38
2022-09-14T04:09:34.470Z,100146.28
2022-09-14T04:12:01.063Z,100108.09
2022-09-14T04:14:27.836Z,100126.91
2022-09-14T04:16:54.332Z,100164.94
2022-09-14T04:19:20.786Z,100115.28
2022-09-14T04:21:47.309Z,100101.56
2022-09-14T04:24:15.686Z,100115.56
2022-09-14T04:26:44.192Z,100121.09
2022-09-14T04:29:12.756Z,100129.88
2022-09-14T04:31:39.464Z,100146.84
2022-09-14T04:34:05.928Z,100137.53
2022-09-14T04:36:33.196Z,100125.63
2022-09-14T04:39:02.169Z,100123.53
2022-09-14T04:41:30.423Z,100143.06
2022-09-14T04:43:57.399Z,100119.44
2022-09-14T04:46:27.021Z,100139.19
2022-09-14T04:48:53.814Z,100124.75
2022-09-14T04:51:31.463Z,100141.38
2022-09-14T04:53:59.566Z,100083.78
2022-09-14T04:56:31.006Z,100110.81
2022-09-14T04:59:02.421Z,100139.50
2022-09-14T05:01:32.624Z,100082.94
2022-09-14T05:04:06.862Z,100117.16
2022-09-14T05:06:55.960Z,100125.38
2022-09-14T05:09:51.967Z,100084.59
2022-09-14T05:12:27.837Z,100078.31
2022-09-14T05:15:05.199Z,100084.31
2022-09-14T05:17:41.086Z,100135.69
2022-09-14T05:20:10.655Z,100091.72
2022-09-14T05:22:37.429Z,100079.97
2022-09-14T05:44:37.542Z,100101.56
2022-09-14T05:47:03.992Z,100100.28
2022-09-14T05:49:30.538Z,100099.44
2022-09-14T05:52:02.903Z,100098.44
2022-09-14T06:19:29.628Z,100103.59
2022-09-14T06:40:30.750Z,100068.34
2022-09-14T06:53:08.484Z,100038.22
2022-09-14T06:53:37.913Z,100071.59
2022-09-14T07:02:35.533Z,100056.84
2022-09-14T07:05:58.125Z,100108.59
2022-09-14T07:08:58.569Z,100088.72
2022-09-14T07:14:50.048Z,100090.09
2022-09-14T07:17:16.723Z,100072.00
2022-09-14T07:19:43.408Z,100101.84
2022-09-14T07:22:09.958Z,100091.16
2022-09-14T07:24:36.362Z,100091.59
2022-09-14T07:27:11.902Z,100083.69
2022-09-14T07:30:00.956Z,100108.31
2022-09-14T07:32:27.647Z,100074.13
2022-09-14T07:34:54.133Z,100078.94
2022-09-14T07:37:20.556Z,100069.16
2022-09-14T07:39:47.532Z,100090.03
2022-09-14T07:42:14.302Z,100094.03
2022-09-14T07:44:40.870Z,100090.50
2022-09-14T07:47:07.308Z,100095.56
2022-09-14T07:49:33.781Z,100096.81
2022-09-14T07:52:00.350Z,100084.94
2022-09-14T07:54:26.877Z,100091.94
2022-09-14T07:56:53.497Z,100092.09
2022-09-14T07:59:37.006Z,100097.41
2022-09-14T08:02:07.532Z,100103.75
2022-09-14T08:04:36.312Z,100086.41
2022-09-14T08:07:03.587Z,100105.44
2022-09-14T08:09:30.116Z,100090.22
2022-09-14T08:11:57.149Z,100100.00
2022-09-14T08:14:23.895Z,100102.25
2022-09-14T08:16:50.580Z,100107.75
2022-09-14T08:19:20.499Z,100055.19
2022-09-14T08:26:45.664Z,100108.75
2022-09-14T08:29:13.819Z,100077.22
2022-09-14T08:31:54.401Z,100075.50
2022-09-14T08:35:07.143Z,100047.94
2022-09-14T08:37:52.987Z,100076.84
2022-09-14T08:40:28.279Z,100075.22
2022-09-14T08:43:07.606Z,100040.88
2022-09-14T08:45:34.295Z,100094.16
2022-09-14T08:48:01.043Z,100097.31
2022-09-14T08:50:33.818Z,100062.97
2022-09-14T08:53:02.183Z,100090.03
2022-09-14T08:55:45.127Z,100067.94
2022-09-14T08:58:20.623Z,100073.28
2022-09-14T09:01:15.783Z,100049.41
2022-09-14T09:04:09.774Z,100058.00
2022-09-14T09:06:57.591Z,100083.88
2022-09-14T09:09:37.790Z,100091.00
2022-09-14T09:12:05.583Z,100064.16
2022-09-14T09:14:44.179Z,100078.53
2022-09-14T09:17:17.460Z,100082.81
2022-09-14T09:20:09.048Z,100074.53
2022-09-14T09:22:44.553Z,100041.31
2022-09-14T09:25:20.508Z,100046.44
2022-09-14T09:28:30.401Z,100048.50
2022-09-14T09:31:12.643Z,100027.34
2022-09-14T09:33:41.126Z,100066.94
2022-09-14T09:36:12.898Z,100068.97
2022-09-14T09:38:39.410Z,100045.88
2022-09-14T09:41:32.909Z,100071.84
2022-09-14T09:44:10.482Z,100059.34
2022-09-14T09:46:48.373Z,100073.63
2022-09-14T09:49:26.498Z,100052.66
2022-09-14T09:51:53.666Z,100045.56
2022-09-14T09:54:37.876Z,100055.84
2022-09-14T09:57:25.114Z,100037.56
2022-09-14T09:59:51.847Z,100071.91
2022-09-14T10:02:37.552Z,100065.50
2022-09-14T10:05:10.160Z,100047.88
2022-09-14T10:07:53.616Z,100039.41
2022-09-14T10:10:29.901Z,100041.09
2022-09-14T10:13:10.773Z,100019.13
2022-09-14T10:15:37.525Z,100005.28
2022-09-14T10:18:13.503Z,100046.72
2022-09-14T10:20:53.096Z,100025.88
2022-09-14T10:23:19.658Z,100055.63
2022-09-14T10:25:51.390Z,100039.53
2022-09-14T10:28:28.446Z,100039.22
2022-09-14T10:31:15.229Z,100019.81
2022-09-14T10:33:42.642Z,100031.97
2022-09-14T10:36:31.788Z,100026.63
2022-09-14T10:39:54.144Z,100038.94
2022-09-14T10:42:39.005Z,100025.38
2022-09-14T10:45:08.599Z,100026.97
2022-09-14T10:48:09.984Z,99979.91
2022-09-14T10:51:31.665Z,100023.72
2022-09-14T10:54:19.770Z,100031.66
2022-09-14T10:57:06.096Z,100023.00
2022-09-14T10:59:45.768Z,100021.88
2022-09-14T11:02:32.485Z,100007.84
2022-09-14T11:05:13.214Z,100014.63
2022-09-14T11:08:06.525Z,100028.47
2022-09-14T11:10:51.376Z,100007.31
2022-09-14T11:13:30.780Z,100018.22
2022-09-14T11:16:25.405Z,99975.84
2022-09-14T11:19:22.767Z,100025.91
2022-09-14T11:22:23.085Z,100010.78
2022-09-14T11:24:56.413Z,100027.31
2022-09-14T11:27:32.310Z,100027.56
2022-09-14T11:30:20.910Z,99995.47
2022-09-14T11:32:54.336Z,100006.91
2022-09-14T11:35:37.914Z,100005.00
2022-09-14T11:38:29.141Z,100011.59
2022-09-14T11:41:23.646Z,100020.31
2022-09-14T11:44:00.839Z,99997.31
2022-09-14T11:46:34.743Z,100006.13
2022-09-14T11:50:44.429Z,100015.22
2022-09-14T11:53:36.391Z,99983.47
2022-09-14T12:00:25.554Z,100013.69
2022-09-14T12:30:00.605Z,99972.66
2022-09-14T13:18:20.151Z,99958.13
2022-09-14T13:21:02.857Z,99900.41
2022-09-14T13:42:47.645Z,99894.19
2022-09-14T14:00:43.949Z,99937.03
2022-09-14T14:04:27.765Z,99931.28
2022-09-14T14:07:21.200Z,99935.44
2022-09-14T14:09:59.268Z,99871.03
2022-09-14T14:12:33.674Z,99880.81
2022-09-14T14:15:27.166Z,99912.88
2022-09-14T14:17:54.570Z,99907.41
2022-09-14T14:20:24.226Z,99907.41
2022-09-14T14:23:20.790Z,99897.81
2022-09-14T14:26:11.693Z,99891.59
2022-09-14T14:29:10.047Z,99844.69
2022-09-14T14:32:43.514Z,99841.84
2022-09-14T14:35:20.163Z,99866.63
2022-09-14T14:37:51.102Z,99862.28
2022-09-14T14:40:28.891Z,99861.34
2022-09-14T14:43:11.917Z,99848.28
2022-09-14T14:45:41.055Z,99835.41
2022-09-14T14:48:32.089Z,99853.84
2022-09-14T14:54:41.211Z,99850.75
2022-09-14T14:57:20.794Z,99859.84
2022-09-14T14:59:53.258Z,99849.22
2022-09-14T15:02:19.831Z,99876.34
2022-09-14T15:04:46.725Z,99856.16
2022-09-14T15:07:44.214Z,99861.81
2022-09-14T15:10:15.295Z,99869.53
2022-09-14T15:12:41.977Z,99888.78
2022-09-14T15:15:20.313Z,99879.84
2022-09-14T15:17:46.786Z,99869.38
2022-09-14T15:20:14.477Z,99876.94
2022-09-14T15:22:42.428Z,99864.91
2022-09-14T15:28:23.754Z,99869.09
2022-09-14T15:30:51.840Z,99869.06
2022-09-14T15:33:19.681Z,99868.25
2022-09-14T15:35:46.159Z,99870.78
2022-09-14T15:38:15.609Z,99835.00
2022-09-14T15:41:31.409Z,99865.41
2022-09-14T15:43:58.086Z,99816.78
2022-09-14T15:46:25.036Z,99844.13
2022-09-14T15:48:51.461Z,99866.75
2022-09-14T15:51:19.626Z,99866.25
2022-09-14T15:53:46.429Z,99844.63
2022-09-14T15:56:13.528Z,99866.75
2022-09-14T15:58:41.247Z,99868.44
2022-09-14T16:01:14.997Z,99853.56
2022-09-14T16:03:42.738Z,99850.22
2022-09-14T16:06:11.456Z,99856.97
2022-09-14T16:08:39.087Z,99867.25
2022-09-14T16:11:07.198Z,99860.84
2022-09-14T16:13:34.876Z,99857.63
2022-09-14T16:16:07.206Z,99853.41
2022-09-14T16:18:34.294Z,99849.88
2022-09-14T16:21:11.663Z,99864.38
2022-09-14T16:23:39.652Z,99875.19
2022-09-14T16:26:07.034Z,99879.75
2022-09-14T16:28:33.495Z,99846.97
2022-09-14T16:31:08.459Z,99868.25
2022-09-14T16:33:40.367Z,99853.38
2022-09-14T16:36:09.494Z,99854.56
2022-09-14T16:38:36.637Z,99854.94
2022-09-14T16:41:06.274Z,99856.41
2022-09-14T16:43:34.316Z,99842.22
2022-09-14T16:46:10.618Z,99859.63
2022-09-14T16:48:50.670Z,99842.09
2022-09-14T16:55:13.338Z,99807.91
2022-09-14T17:01:54.019Z,99822.72
2022-09-14T17:04:22.389Z,99831.38
2022-09-14T17:06:53.179Z,99804.09
2022-09-14T17:09:24.161Z,99809.84
2022-09-14T17:11:53.704Z,99832.34
2022-09-14T17:14:27.440Z,99796.28
2022-09-14T17:16:54.769Z,99791.25
2022-09-14T17:19:21.713Z,99831.06
2022-09-14T17:21:48.839Z,99827.00
2022-09-14T17:24:21.901Z,99800.88
2022-09-14T17:26:48.988Z,99810.06
2022-09-14T17:29:15.889Z,99841.94
2022-09-14T17:31:43.831Z,99821.53
2022-09-14T17:34:14.203Z,99822.44
2022-09-14T17:36:40.855Z,99816.28
2022-09-14T17:39:11.615Z,99797.94
2022-09-14T17:41:56.941Z,99797.81
2022-09-14T17:44:26.088Z,99793.41
2022-09-14T17:46:55.219Z,99777.38
2022-09-14T17:49:23.268Z,99810.19
2022-09-14T17:51:53.083Z,99782.50
2022-09-14T17:54:28.448Z,99793.91
2022-09-14T17:56:55.351Z,99805.72
2022-09-14T17:59:22.701Z,99826.09
2022-09-14T18:01:50.284Z,99817.75
2022-09-14T18:04:18.056Z,99816.13
2022-09-14T18:06:49.839Z,99792.00
2022-09-14T18:09:25.814Z,99814.63
2022-09-14T18:11:56.383Z,99816.94
2022-09-14T18:14:58.333Z,99774.47
2022-09-14T18:17:25.136Z,99760.00
2022-09-14T18:19:58.421Z,99816.09
2022-09-14T18:22:26.224Z,99758.53
2022-09-14T18:24:53.015Z,99759.22
2022-09-14T18:27:19.846Z,99816.22
2022-09-14T18:30:34.842Z,99772.34
2022-09-14T18:36:46.639Z,99777.03
2022-09-14T18:39:53.105Z,99762.38
2022-09-14T18:43:23.661Z,99806.50
2022-09-14T21:04:36.611Z,99810.47
2022-09-14T21:07:03.391Z,99779.75
2022-09-14T21:09:29.976Z,99819.34
2022-09-14T21:11:56.613Z,99796.97
2022-09-14T21:14:23.513Z,99763.75
2022-09-14T21:16:55.135Z,99802.91
2022-09-14T21:19:27.035Z,99799.66
2022-09-14T21:21:58.262Z,99795.28
2022-09-14T21:25:05.928Z,99761.59
2022-09-14T21:27:32.630Z,99764.00
2022-09-14T21:30:06.166Z,99773.31
2022-09-14T21:32:35.059Z,99785.19
2022-09-14T21:42:10.651Z,99812.13
2022-09-14T21:44:38.051Z,99794.84
2022-09-14T21:47:51.678Z,99807.81
2022-09-14T21:50:24.021Z,99755.94
2022-09-14T21:53:11.468Z,99782.28
2022-09-14T21:55:39.109Z,99752.72
2022-09-14T21:58:34.832Z,99769.81
2022-09-14T22:01:10.937Z,99767.38
2022-09-14T22:03:43.174Z,99763.53
2022-09-14T22:06:21.857Z,99814.63
2022-09-14T22:09:01.696Z,99774.69
2022-09-14T22:11:57.865Z,99821.41
2022-09-14T22:15:08.706Z,99781.13
2022-09-14T22:17:41.156Z,99777.50
2022-09-14T22:20:16.867Z,99772.13
2022-09-14T22:22:47.457Z,99765.69
2022-09-14T22:25:28.244Z,99768.09
2022-09-14T22:27:57.670Z,99769.69
2022-09-14T22:34:12.740Z,99810.44
2022-09-14T22:36:40.453Z,99779.44
2022-09-14T22:39:11.151Z,99794.50
2022-09-14T22:41:38.823Z,99774.38
2022-09-14T22:44:09.882Z,99761.31
2022-09-14T22:46:50.501Z,99791.16
2022-09-14T22:49:30.954Z,99765.06
2022-09-14T22:52:00.703Z,99760.22
2022-09-14T22:54:35.373Z,99766.97
2022-09-14T22:57:20.334Z,99804.38
2022-09-14T22:59:58.715Z,99785.94
2022-09-14T23:02:29.972Z,99755.97
2022-09-14T23:04:56.710Z,99764.44
2022-09-14T23:07:23.623Z,99797.94
2022-09-14T23:09:53.164Z,99769.56
2022-09-14T23:12:19.707Z,99772.13
2022-09-14T23:14:46.192Z,99754.97
2022-09-14T23:17:13.099Z,99795.50
2022-09-14T23:19:39.640Z,99791.13
2022-09-14T23:22:06.173Z,99783.50
2022-09-14T23:24:32.745Z,99773.66
2022-09-14T23:26:59.236Z,99795.13
2022-09-14T23:29:25.844Z,99782.44
2022-09-14T23:31:52.409Z,99784.38
2022-09-14T23:34:18.928Z,99787.69
2022-09-14T23:36:45.576Z,99783.81
2022-09-14T23:39:11.941Z,99791.56
2022-09-14T23:41:39.299Z,99785.88
2022-09-14T23:44:05.824Z,99758.19
2022-09-14T23:46:32.474Z,99763.97
2022-09-14T23:48:58.989Z,99778.19
2022-09-14T23:51:25.672Z,99773.06
2022-09-14T23:53:52.137Z,99778.03
2022-09-14T23:56:18.655Z,99740.81
2022-09-14T23:58:45.926Z,99773.91
